sensor_id;sensor_type;location;lat;lon;timestamp;P1;durP1;ratioP1;P2;durP2;ratioP2
18752;SDS011;9505;50.882;5.350;2022-08-18T00:00:47;92.25;;;30.70;;
18752;SDS011;9505;50.882;5.350;2022-08-18T00:03:13;116.60;;;35.40;;
18752;SDS011;9505;50.882;5.350;2022-08-18T00:05:39;109.63;;;35.03;;
18752;SDS011;9505;50.882;5.350;2022-08-18T00:08:05;93.45;;;28.98;;
18752;SDS011;9505;50.882;5.350;2022-08-18T00:10:31;95.00;;;31.52;;
18752;SDS011;9505;50.882;5.350;2022-08-18T00:12:57;106.50;;;32.75;;
18752;SDS011;9505;50.882;5.350;2022-08-18T00:15:24;101.72;;;34.90;;
18752;SDS011;9505;50.882;5.350;2022-08-18T00:17:50;92.00;;;30.60;;
18752;SDS011;9505;50.882;5.350;2022-08-18T00:20:17;84.95;;;28.45;;
18752;SDS011;9505;50.882;5.350;2022-08-18T00:22:45;95.32;;;31.45;;
18752;SDS011;9505;50.882;5.350;2022-08-18T00:25:12;102.15;;;31.35;;
18752;SDS011;9505;50.882;5.350;2022-08-18T00:27:39;103.78;;;32.83;;
18752;SDS011;9505;50.882;5.350;2022-08-18T00:30:07;86.70;;;29.88;;
18752;SDS011;9505;50.882;5.350;2022-08-18T00:32:36;81.47;;;27.02;;
18752;SDS011;9505;50.882;5.350;2022-08-18T00:35:06;94.03;;;29.45;;
18752;SDS011;9505;50.882;5.350;2022-08-18T00:37:45;101.55;;;29.67;;
18752;SDS011;9505;50.882;5.350;2022-08-18T00:40:13;100.60;;;30.52;;
18752;SDS011;9505;50.882;5.350;2022-08-18T00:42:44;83.82;;;28.48;;
18752;SDS011;9505;50.882;5.350;2022-08-18T00:45:13;94.45;;;30.52;;
18752;SDS011;9505;50.882;5.350;2022-08-18T00:47:41;78.22;;;28.73;;
18752;SDS011;9505;50.882;5.350;2022-08-18T00:50:08;89.00;;;29.90;;
18752;SDS011;9505;50.882;5.350;2022-08-18T00:52:39;88.90;;;27.55;;
18752;SDS011;9505;50.882;5.350;2022-08-18T00:55:05;89.63;;;29.65;;
18752;SDS011;9505;50.882;5.350;2022-08-18T00:57:31;86.03;;;29.27;;
18752;SDS011;9505;50.882;5.350;2022-08-18T01:00:03;88.07;;;28.95;;
18752;SDS011;9505;50.882;5.350;2022-08-18T01:02:39;103.63;;;30.27;;
18752;SDS011;9505;50.882;5.350;2022-08-18T01:07:46;92.82;;;28.48;;
18752;SDS011;9505;50.882;5.350;2022-08-18T01:10:14;105.10;;;31.33;;
18752;SDS011;9505;50.882;5.350;2022-08-18T01:12:42;100.55;;;31.00;;
18752;SDS011;9505;50.882;5.350;2022-08-18T01:15:08;104.22;;;31.77;;
18752;SDS011;9505;50.882;5.350;2022-08-18T01:17:35;112.15;;;34.08;;
18752;SDS011;9505;50.882;5.350;2022-08-18T01:20:21;115.88;;;34.40;;
18752;SDS011;9505;50.882;5.350;2022-08-18T01:23:40;107.40;;;31.75;;
18752;SDS011;9505;50.882;5.350;2022-08-18T01:26:06;114.40;;;32.95;;
18752;SDS011;9505;50.882;5.350;2022-08-18T01:28:35;122.72;;;35.97;;
18752;SDS011;9505;50.882;5.350;2022-08-18T01:31:02;112.40;;;31.80;;
18752;SDS011;9505;50.882;5.350;2022-08-18T01:33:30;137.30;;;36.63;;
18752;SDS011;9505;50.882;5.350;2022-08-18T01:35:59;115.63;;;34.42;;
18752;SDS011;9505;50.882;5.350;2022-08-18T01:38:27;130.13;;;36.53;;
18752;SDS011;9505;50.882;5.350;2022-08-18T01:40:56;129.93;;;36.47;;
18752;SDS011;9505;50.882;5.350;2022-08-18T01:43:22;124.10;;;35.92;;
18752;SDS011;9505;50.882;5.350;2022-08-18T01:45:49;128.55;;;37.00;;
18752;SDS011;9505;50.882;5.350;2022-08-18T01:48:14;178.98;;;44.55;;
18752;SDS011;9505;50.882;5.350;2022-08-18T01:50:41;177.95;;;44.08;;
18752;SDS011;9505;50.882;5.350;2022-08-18T01:53:08;186.95;;;45.63;;
18752;SDS011;9505;50.882;5.350;2022-08-18T01:55:36;157.85;;;37.00;;
18752;SDS011;9505;50.882;5.350;2022-08-18T01:58:03;156.90;;;37.40;;
18752;SDS011;9505;50.882;5.350;2022-08-18T02:00:31;184.93;;;40.83;;
18752;SDS011;9505;50.882;5.350;2022-08-18T02:02:58;232.10;;;45.38;;
18752;SDS011;9505;50.882;5.350;2022-08-18T02:05:59;360.20;;;59.22;;
18752;SDS011;9505;50.882;5.350;2022-08-18T02:08:20;303.98;;;54.45;;
18752;SDS011;9505;50.882;5.350;2022-08-18T02:10:46;370.00;;;63.63;;
18752;SDS011;9505;50.882;5.350;2022-08-18T02:13:11;366.27;;;63.60;;
18752;SDS011;9505;50.882;5.350;2022-08-18T02:15:37;397.67;;;67.03;;
18752;SDS011;9505;50.882;5.350;2022-08-18T02:18:04;385.05;;;64.60;;
18752;SDS011;9505;50.882;5.350;2022-08-18T02:20:29;343.77;;;59.38;;
18752;SDS011;9505;50.882;5.350;2022-08-18T02:22:56;321.02;;;57.03;;
18752;SDS011;9505;50.882;5.350;2022-08-18T02:25:22;335.27;;;59.15;;
18752;SDS011;9505;50.882;5.350;2022-08-18T02:27:48;346.15;;;58.95;;
18752;SDS011;9505;50.882;5.350;2022-08-18T02:30:15;390.67;;;58.83;;
18752;SDS011;9505;50.882;5.350;2022-08-18T02:32:42;368.77;;;56.22;;
18752;SDS011;9505;50.882;5.350;2022-08-18T02:35:08;343.10;;;59.22;;
18752;SDS011;9505;50.882;5.350;2022-08-18T02:37:35;398.13;;;60.45;;
18752;SDS011;9505;50.882;5.350;2022-08-18T02:40:00;348.35;;;56.05;;
18752;SDS011;9505;50.882;5.350;2022-08-18T02:42:26;371.95;;;57.78;;
18752;SDS011;9505;50.882;5.350;2022-08-18T02:44:52;411.25;;;61.30;;
18752;SDS011;9505;50.882;5.350;2022-08-18T02:47:18;362.13;;;56.13;;
18752;SDS011;9505;50.882;5.350;2022-08-18T02:49:45;379.38;;;55.35;;
18752;SDS011;9505;50.882;5.350;2022-08-18T02:52:10;334.67;;;52.45;;
18752;SDS011;9505;50.882;5.350;2022-08-18T02:54:36;354.80;;;55.40;;
18752;SDS011;9505;50.882;5.350;2022-08-18T02:57:09;339.75;;;53.58;;
18752;SDS011;9505;50.882;5.350;2022-08-18T02:59:36;305.38;;;50.13;;
18752;SDS011;9505;50.882;5.350;2022-08-18T03:02:04;285.27;;;47.70;;
18752;SDS011;9505;50.882;5.350;2022-08-18T03:04:31;394.00;;;55.35;;
18752;SDS011;9505;50.882;5.350;2022-08-18T03:06:59;360.63;;;54.20;;
18752;SDS011;9505;50.882;5.350;2022-08-18T03:09:26;332.70;;;55.97;;
18752;SDS011;9505;50.882;5.350;2022-08-18T03:11:53;421.83;;;55.83;;
18752;SDS011;9505;50.882;5.350;2022-08-18T03:14:18;333.23;;;53.30;;
18752;SDS011;9505;50.882;5.350;2022-08-18T03:16:45;308.10;;;50.42;;
18752;SDS011;9505;50.882;5.350;2022-08-18T03:19:12;294.63;;;47.65;;
18752;SDS011;9505;50.882;5.350;2022-08-18T03:21:40;328.60;;;54.22;;
18752;SDS011;9505;50.882;5.350;2022-08-18T03:24:11;333.83;;;52.08;;
18752;SDS011;9505;50.882;5.350;2022-08-18T03:26:41;281.70;;;46.40;;
18752;SDS011;9505;50.882;5.350;2022-08-18T03:29:08;311.75;;;50.63;;
18752;SDS011;9505;50.882;5.350;2022-08-18T03:31:35;341.58;;;51.35;;
18752;SDS011;9505;50.882;5.350;2022-08-18T03:34:03;294.55;;;46.58;;
18752;SDS011;9505;50.882;5.350;2022-08-18T03:36:30;337.73;;;50.88;;
18752;SDS011;9505;50.882;5.350;2022-08-18T03:38:57;267.73;;;46.10;;
18752;SDS011;9505;50.882;5.350;2022-08-18T03:41:26;285.50;;;50.60;;
18752;SDS011;9505;50.882;5.350;2022-08-18T03:43:53;304.92;;;47.58;;
18752;SDS011;9505;50.882;5.350;2022-08-18T03:46:19;250.68;;;46.08;;
18752;SDS011;9505;50.882;5.350;2022-08-18T03:48:47;260.48;;;42.33;;
18752;SDS011;9505;50.882;5.350;2022-08-18T03:51:20;284.92;;;44.70;;
18752;SDS011;9505;50.882;5.350;2022-08-18T03:53:49;292.55;;;47.60;;
18752;SDS011;9505;50.882;5.350;2022-08-18T03:56:17;319.02;;;52.67;;
18752;SDS011;9505;50.882;5.350;2022-08-18T03:58:46;305.77;;;48.60;;
18752;SDS011;9505;50.882;5.350;2022-08-18T04:01:14;308.05;;;49.13;;
18752;SDS011;9505;50.882;5.350;2022-08-18T04:03:42;288.35;;;50.00;;
18752;SDS011;9505;50.882;5.350;2022-08-18T04:06:16;304.88;;;51.72;;
18752;SDS011;9505;50.882;5.350;2022-08-18T04:08:43;258.30;;;48.03;;
18752;SDS011;9505;50.882;5.350;2022-08-18T04:11:09;255.60;;;48.33;;
18752;SDS011;9505;50.882;5.350;2022-08-18T04:13:37;249.07;;;46.80;;
18752;SDS011;9505;50.882;5.350;2022-08-18T04:16:03;246.48;;;46.85;;
18752;SDS011;9505;50.882;5.350;2022-08-18T04:18:29;203.43;;;42.42;;
18752;SDS011;9505;50.882;5.350;2022-08-18T04:21:00;202.50;;;42.47;;
18752;SDS011;9505;50.882;5.350;2022-08-18T04:23:27;199.00;;;42.33;;
18752;SDS011;9505;50.882;5.350;2022-08-18T04:25:56;207.95;;;43.50;;
18752;SDS011;9505;50.882;5.350;2022-08-18T04:28:24;213.65;;;43.42;;
18752;SDS011;9505;50.882;5.350;2022-08-18T04:30:50;198.85;;;40.65;;
18752;SDS011;9505;50.882;5.350;2022-08-18T04:33:16;214.60;;;41.38;;
18752;SDS011;9505;50.882;5.350;2022-08-18T04:35:42;166.02;;;38.13;;
18752;SDS011;9505;50.882;5.350;2022-08-18T04:38:08;193.75;;;38.67;;
18752;SDS011;9505;50.882;5.350;2022-08-18T04:40:35;203.10;;;39.60;;
18752;SDS011;9505;50.882;5.350;2022-08-18T04:43:01;229.40;;;43.65;;
18752;SDS011;9505;50.882;5.350;2022-08-18T04:45:27;204.07;;;43.13;;
18752;SDS011;9505;50.882;5.350;2022-08-18T04:47:53;231.38;;;43.88;;
18752;SDS011;9505;50.882;5.350;2022-08-18T04:50:19;235.55;;;44.78;;
18752;SDS011;9505;50.882;5.350;2022-08-18T04:52:45;199.68;;;41.60;;
18752;SDS011;9505;50.882;5.350;2022-08-18T04:55:30;208.20;;;43.58;;
18752;SDS011;9505;50.882;5.350;2022-08-18T04:57:55;217.30;;;44.33;;
18752;SDS011;9505;50.882;5.350;2022-08-18T05:00:23;223.57;;;44.20;;
18752;SDS011;9505;50.882;5.350;2022-08-18T05:02:49;221.27;;;44.00;;
18752;SDS011;9505;50.882;5.350;2022-08-18T05:05:16;227.38;;;43.20;;
18752;SDS011;9505;50.882;5.350;2022-08-18T05:07:45;236.43;;;45.78;;
18752;SDS011;9505;50.882;5.350;2022-08-18T05:10:11;218.48;;;40.72;;
18752;SDS011;9505;50.882;5.350;2022-08-18T05:12:38;209.32;;;41.00;;
18752;SDS011;9505;50.882;5.350;2022-08-18T05:15:08;233.60;;;43.67;;
18752;SDS011;9505;50.882;5.350;2022-08-18T05:17:37;196.48;;;39.92;;
18752;SDS011;9505;50.882;5.350;2022-08-18T05:20:05;226.02;;;43.13;;
18752;SDS011;9505;50.882;5.350;2022-08-18T05:22:39;212.70;;;41.70;;
18752;SDS011;9505;50.882;5.350;2022-08-18T05:25:09;248.27;;;45.15;;
18752;SDS011;9505;50.882;5.350;2022-08-18T05:27:37;242.48;;;43.95;;
18752;SDS011;9505;50.882;5.350;2022-08-18T05:30:04;258.17;;;48.17;;
18752;SDS011;9505;50.882;5.350;2022-08-18T05:32:32;218.63;;;41.63;;
18752;SDS011;9505;50.882;5.350;2022-08-18T05:35:12;235.95;;;46.90;;
18752;SDS011;9505;50.882;5.350;2022-08-18T05:37:46;244.50;;;45.88;;
18752;SDS011;9505;50.882;5.350;2022-08-18T05:40:23;239.25;;;46.67;;
18752;SDS011;9505;50.882;5.350;2022-08-18T05:42:49;214.82;;;41.42;;
18752;SDS011;9505;50.882;5.350;2022-08-18T05:45:16;233.82;;;44.80;;
18752;SDS011;9505;50.882;5.350;2022-08-18T05:47:42;240.10;;;45.85;;
18752;SDS011;9505;50.882;5.350;2022-08-18T05:50:18;225.90;;;42.97;;
18752;SDS011;9505;50.882;5.350;2022-08-18T05:55:38;224.80;;;42.60;;
18752;SDS011;9505;50.882;5.350;2022-08-18T05:58:36;248.15;;;44.47;;
18752;SDS011;9505;50.882;5.350;2022-08-18T06:01:06;216.95;;;41.72;;
18752;SDS011;9505;50.882;5.350;2022-08-18T06:03:50;217.07;;;43.53;;
18752;SDS011;9505;50.882;5.350;2022-08-18T06:06:20;239.35;;;45.60;;
18752;SDS011;9505;50.882;5.350;2022-08-18T06:08:51;236.63;;;43.58;;
18752;SDS011;9505;50.882;5.350;2022-08-18T06:11:41;225.88;;;44.47;;
18752;SDS011;9505;50.882;5.350;2022-08-18T06:14:07;238.93;;;44.88;;
18752;SDS011;9505;50.882;5.350;2022-08-18T06:32:20;202.57;;;41.83;;
18752;SDS011;9505;50.882;5.350;2022-08-18T06:37:55;200.48;;;40.47;;
18752;SDS011;9505;50.882;5.350;2022-08-18T06:41:00;200.40;;;42.78;;
18752;SDS011;9505;50.882;5.350;2022-08-18T06:44:24;203.75;;;41.78;;
18752;SDS011;9505;50.882;5.350;2022-08-18T06:46:43;191.35;;;42.50;;
18752;SDS011;9505;50.882;5.350;2022-08-18T06:49:17;184.20;;;41.35;;
18752;SDS011;9505;50.882;5.350;2022-08-18T06:51:55;182.32;;;40.58;;
18752;SDS011;9505;50.882;5.350;2022-08-18T06:56:47;172.90;;;40.35;;
18752;SDS011;9505;50.882;5.350;2022-08-18T06:59:18;168.40;;;38.92;;
18752;SDS011;9505;50.882;5.350;2022-08-18T07:01:51;177.73;;;42.15;;
18752;SDS011;9505;50.882;5.350;2022-08-18T07:07:34;143.20;;;38.15;;
18752;SDS011;9505;50.882;5.350;2022-08-18T07:10:04;139.02;;;38.15;;
18752;SDS011;9505;50.882;5.350;2022-08-18T07:12:50;136.43;;;36.53;;
18752;SDS011;9505;50.882;5.350;2022-08-18T07:15:17;110.57;;;33.08;;
18752;SDS011;9505;50.882;5.350;2022-08-18T07:17:49;123.07;;;35.90;;
18752;SDS011;9505;50.882;5.350;2022-08-18T07:25:27;104.05;;;34.50;;
18752;SDS011;9505;50.882;5.350;2022-08-18T07:27:56;105.07;;;33.13;;
18752;SDS011;9505;50.882;5.350;2022-08-18T07:30:33;94.22;;;30.70;;
18752;SDS011;9505;50.882;5.350;2022-08-18T07:38:18;85.32;;;30.30;;
18752;SDS011;9505;50.882;5.350;2022-08-18T07:41:13;93.30;;;32.05;;
18752;SDS011;9505;50.882;5.350;2022-08-18T07:46:54;78.88;;;28.88;;
18752;SDS011;9505;50.882;5.350;2022-08-18T07:49:27;89.15;;;30.80;;
18752;SDS011;9505;50.882;5.350;2022-08-18T07:52:07;73.88;;;26.92;;
18752;SDS011;9505;50.882;5.350;2022-08-18T07:54:44;72.00;;;28.95;;
18752;SDS011;9505;50.882;5.350;2022-08-18T07:57:40;72.65;;;27.63;;
18752;SDS011;9505;50.882;5.350;2022-08-18T08:06:47;74.00;;;28.17;;
18752;SDS011;9505;50.882;5.350;2022-08-18T08:09:21;73.45;;;27.35;;
18752;SDS011;9505;50.882;5.350;2022-08-18T08:12:12;72.25;;;28.80;;
18752;SDS011;9505;50.882;5.350;2022-08-18T08:14:49;70.68;;;28.42;;
18752;SDS011;9505;50.882;5.350;2022-08-18T08:28:23;67.03;;;28.13;;
18752;SDS011;9505;50.882;5.350;2022-08-18T08:31:19;63.03;;;26.33;;
18752;SDS011;9505;50.882;5.350;2022-08-18T08:36:38;58.17;;;24.63;;
18752;SDS011;9505;50.882;5.350;2022-08-18T08:39:22;62.92;;;26.02;;
18752;SDS011;9505;50.882;5.350;2022-08-18T08:41:56;52.92;;;22.63;;
18752;SDS011;9505;50.882;5.350;2022-08-18T08:44:38;48.63;;;20.92;;
18752;SDS011;9505;50.882;5.350;2022-08-18T08:47:23;51.55;;;20.95;;
18752;SDS011;9505;50.882;5.350;2022-08-18T08:50:04;47.90;;;19.55;;
18752;SDS011;9505;50.882;5.350;2022-08-18T08:52:51;48.22;;;21.52;;
18752;SDS011;9505;50.882;5.350;2022-08-18T08:55:30;46.08;;;20.17;;
18752;SDS011;9505;50.882;5.350;2022-08-18T09:00:32;42.03;;;19.75;;
18752;SDS011;9505;50.882;5.350;2022-08-18T09:05:49;39.25;;;19.67;;
18752;SDS011;9505;50.882;5.350;2022-08-18T09:22:59;38.72;;;17.17;;
18752;SDS011;9505;50.882;5.350;2022-08-18T09:28:08;42.53;;;19.60;;
18752;SDS011;9505;50.882;5.350;2022-08-18T09:38:48;29.65;;;13.95;;
18752;SDS011;9505;50.882;5.350;2022-08-18T09:41:55;25.63;;;13.43;;
18752;SDS011;9505;50.882;5.350;2022-08-18T09:49:53;28.77;;;15.07;;
18752;SDS011;9505;50.882;5.350;2022-08-18T09:57:43;30.48;;;15.23;;
18752;SDS011;9505;50.882;5.350;2022-08-18T10:07:48;26.88;;;13.00;;
18752;SDS011;9505;50.882;5.350;2022-08-18T10:24:22;25.98;;;12.48;;
18752;SDS011;9505;50.882;5.350;2022-08-18T10:26:59;28.90;;;14.40;;
18752;SDS011;9505;50.882;5.350;2022-08-18T10:42:38;22.20;;;9.20;;
18752;SDS011;9505;50.882;5.350;2022-08-18T10:45:13;20.08;;;9.05;;
18752;SDS011;9505;50.882;5.350;2022-08-18T10:47:55;15.45;;;8.02;;
18752;SDS011;9505;50.882;5.350;2022-08-18T10:50:28;20.38;;;8.80;;
18752;SDS011;9505;50.882;5.350;2022-08-18T11:01:42;15.35;;;7.22;;
18752;SDS011;9505;50.882;5.350;2022-08-18T11:04:25;31.90;;;10.52;;
18752;SDS011;9505;50.882;5.350;2022-08-18T11:09:35;33.75;;;10.27;;
18752;SDS011;9505;50.882;5.350;2022-08-18T11:12:02;22.33;;;8.73;;
18752;SDS011;9505;50.882;5.350;2022-08-18T11:17:32;27.67;;;9.23;;
18752;SDS011;9505;50.882;5.350;2022-08-18T11:20:09;23.33;;;7.55;;
18752;SDS011;9505;50.882;5.350;2022-08-18T11:22:43;20.38;;;7.90;;
18752;SDS011;9505;50.882;5.350;2022-08-18T11:25:21;17.95;;;7.47;;
18752;SDS011;9505;50.882;5.350;2022-08-18T11:27:52;25.45;;;8.75;;
18752;SDS011;9505;50.882;5.350;2022-08-18T11:30:18;14.18;;;7.00;;
18752;SDS011;9505;50.882;5.350;2022-08-18T11:32:44;17.02;;;6.53;;
18752;SDS011;9505;50.882;5.350;2022-08-18T11:35:17;27.20;;;8.65;;
18752;SDS011;9505;50.882;5.350;2022-08-18T11:37:48;22.13;;;7.93;;
18752;SDS011;9505;50.882;5.350;2022-08-18T11:42:56;21.60;;;8.13;;
18752;SDS011;9505;50.882;5.350;2022-08-18T11:58:45;14.10;;;6.70;;
18752;SDS011;9505;50.882;5.350;2022-08-18T12:04:13;17.55;;;7.13;;
18752;SDS011;9505;50.882;5.350;2022-08-18T12:07:03;23.17;;;8.75;;
18752;SDS011;9505;50.882;5.350;2022-08-18T12:09:45;20.52;;;7.65;;
18752;SDS011;9505;50.882;5.350;2022-08-18T12:12:31;16.35;;;6.20;;
18752;SDS011;9505;50.882;5.350;2022-08-18T12:14:58;30.13;;;9.80;;
18752;SDS011;9505;50.882;5.350;2022-08-18T12:17:29;30.08;;;10.20;;
18752;SDS011;9505;50.882;5.350;2022-08-18T12:19:55;29.10;;;9.38;;
18752;SDS011;9505;50.882;5.350;2022-08-18T12:22:23;14.60;;;6.60;;
18752;SDS011;9505;50.882;5.350;2022-08-18T12:24:52;14.15;;;7.00;;
18752;SDS011;9505;50.882;5.350;2022-08-18T12:27:20;23.45;;;8.43;;
18752;SDS011;9505;50.882;5.350;2022-08-18T12:29:51;28.40;;;9.77;;
18752;SDS011;9505;50.882;5.350;2022-08-18T12:32:19;34.80;;;10.30;;
18752;SDS011;9505;50.882;5.350;2022-08-18T12:34:46;28.40;;;10.13;;
18752;SDS011;9505;50.882;5.350;2022-08-18T12:37:14;21.55;;;7.72;;
18752;SDS011;9505;50.882;5.350;2022-08-18T12:39:41;16.15;;;7.32;;
18752;SDS011;9505;50.882;5.350;2022-08-18T12:42:07;20.85;;;7.75;;
18752;SDS011;9505;50.882;5.350;2022-08-18T12:44:34;28.40;;;9.65;;
18752;SDS011;9505;50.882;5.350;2022-08-18T12:47:00;30.38;;;10.15;;
18752;SDS011;9505;50.882;5.350;2022-08-18T12:49:26;13.40;;;6.40;;
18752;SDS011;9505;50.882;5.350;2022-08-18T12:51:53;12.13;;;5.97;;
18752;SDS011;9505;50.882;5.350;2022-08-18T12:54:19;22.27;;;7.72;;
18752;SDS011;9505;50.882;5.350;2022-08-18T12:56:46;29.10;;;9.40;;
18752;SDS011;9505;50.882;5.350;2022-08-18T12:59:14;22.80;;;8.50;;
18752;SDS011;9505;50.882;5.350;2022-08-18T13:01:41;8.98;;;5.10;;
18752;SDS011;9505;50.882;5.350;2022-08-18T13:04:07;15.82;;;6.18;;
18752;SDS011;9505;50.882;5.350;2022-08-18T13:06:33;25.63;;;8.52;;
18752;SDS011;9505;50.882;5.350;2022-08-18T13:09:02;26.58;;;8.40;;
18752;SDS011;9505;50.882;5.350;2022-08-18T13:11:28;15.93;;;5.75;;
18752;SDS011;9505;50.882;5.350;2022-08-18T13:13:54;13.25;;;5.95;;
18752;SDS011;9505;50.882;5.350;2022-08-18T13:16:20;29.08;;;8.32;;
18752;SDS011;9505;50.882;5.350;2022-08-18T13:18:46;19.05;;;7.53;;
18752;SDS011;9505;50.882;5.350;2022-08-18T13:21:12;17.35;;;6.82;;
18752;SDS011;9505;50.882;5.350;2022-08-18T13:23:40;15.13;;;6.43;;
18752;SDS011;9505;50.882;5.350;2022-08-18T13:26:07;18.10;;;7.78;;
18752;SDS011;9505;50.882;5.350;2022-08-18T13:28:45;14.30;;;6.68;;
18752;SDS011;9505;50.882;5.350;2022-08-18T13:31:11;24.13;;;7.38;;
18752;SDS011;9505;50.882;5.350;2022-08-18T13:33:36;29.83;;;9.98;;
18752;SDS011;9505;50.882;5.350;2022-08-18T13:36:04;24.08;;;8.82;;
18752;SDS011;9505;50.882;5.350;2022-08-18T13:38:30;11.43;;;5.93;;
18752;SDS011;9505;50.882;5.350;2022-08-18T13:40:56;13.90;;;5.85;;
18752;SDS011;9505;50.882;5.350;2022-08-18T13:43:26;27.75;;;8.45;;
18752;SDS011;9505;50.882;5.350;2022-08-18T13:45:57;26.95;;;8.13;;
18752;SDS011;9505;50.882;5.350;2022-08-18T13:48:23;29.27;;;8.55;;
18752;SDS011;9505;50.882;5.350;2022-08-18T13:50:51;18.33;;;6.80;;
18752;SDS011;9505;50.882;5.350;2022-08-18T13:53:18;13.48;;;5.57;;
18752;SDS011;9505;50.882;5.350;2022-08-18T13:55:45;32.13;;;9.38;;
18752;SDS011;9505;50.882;5.350;2022-08-18T13:58:12;28.38;;;8.20;;
18752;SDS011;9505;50.882;5.350;2022-08-18T14:00:39;25.27;;;8.25;;
18752;SDS011;9505;50.882;5.350;2022-08-18T14:03:05;12.75;;;5.50;;
18752;SDS011;9505;50.882;5.350;2022-08-18T14:05:32;11.25;;;4.65;;
18752;SDS011;9505;50.882;5.350;2022-08-18T14:07:59;26.90;;;7.45;;
18752;SDS011;9505;50.882;5.350;2022-08-18T14:10:25;28.35;;;8.32;;
18752;SDS011;9505;50.882;5.350;2022-08-18T14:12:55;16.77;;;6.13;;
18752;SDS011;9505;50.882;5.350;2022-08-18T14:15:23;13.70;;;5.57;;
18752;SDS011;9505;50.882;5.350;2022-08-18T14:17:49;12.50;;;5.60;;
18752;SDS011;9505;50.882;5.350;2022-08-18T14:20:15;21.90;;;7.43;;
18752;SDS011;9505;50.882;5.350;2022-08-18T14:23:00;10.40;;;5.18;;
18752;SDS011;9505;50.882;5.350;2022-08-18T14:25:46;33.70;;;8.80;;
18752;SDS011;9505;50.882;5.350;2022-08-18T14:28:31;16.05;;;6.25;;
18752;SDS011;9505;50.882;5.350;2022-08-18T14:30:58;29.75;;;8.45;;
18752;SDS011;9505;50.882;5.350;2022-08-18T14:33:26;27.25;;;8.23;;
18752;SDS011;9505;50.882;5.350;2022-08-18T14:35:52;20.15;;;6.70;;
18752;SDS011;9505;50.882;5.350;2022-08-18T14:38:18;12.07;;;5.43;;
18752;SDS011;9505;50.882;5.350;2022-08-18T14:40:45;25.02;;;6.90;;
18752;SDS011;9505;50.882;5.350;2022-08-18T14:43:12;28.17;;;8.05;;
18752;SDS011;9505;50.882;5.350;2022-08-18T14:45:41;35.47;;;9.38;;
18752;SDS011;9505;50.882;5.350;2022-08-18T14:48:17;34.33;;;8.68;;
18752;SDS011;9505;50.882;5.350;2022-08-18T14:50:47;27.88;;;7.53;;
18752;SDS011;9505;50.882;5.350;2022-08-18T14:53:17;30.60;;;7.88;;
18752;SDS011;9505;50.882;5.350;2022-08-18T14:55:44;11.55;;;4.70;;
18752;SDS011;9505;50.882;5.350;2022-08-18T14:58:11;9.80;;;4.30;;
18752;SDS011;9505;50.882;5.350;2022-08-18T15:00:37;23.60;;;6.53;;
18752;SDS011;9505;50.882;5.350;2022-08-18T15:03:03;23.95;;;6.70;;
18752;SDS011;9505;50.882;5.350;2022-08-18T15:05:30;19.50;;;5.88;;
18752;SDS011;9505;50.882;5.350;2022-08-18T15:07:57;10.93;;;4.45;;
18752;SDS011;9505;50.882;5.350;2022-08-18T15:10:23;21.20;;;6.35;;
18752;SDS011;9505;50.882;5.350;2022-08-18T15:12:49;30.23;;;7.85;;
18752;SDS011;9505;50.882;5.350;2022-08-18T15:15:15;25.50;;;7.35;;
18752;SDS011;9505;50.882;5.350;2022-08-18T15:17:42;12.25;;;4.78;;
18752;SDS011;9505;50.882;5.350;2022-08-18T15:20:08;11.85;;;4.60;;
18752;SDS011;9505;50.882;5.350;2022-08-18T15:22:42;25.85;;;7.43;;
18752;SDS011;9505;50.882;5.350;2022-08-18T15:25:28;21.77;;;6.28;;
18752;SDS011;9505;50.882;5.350;2022-08-18T15:28:09;23.52;;;6.78;;
18752;SDS011;9505;50.882;5.350;2022-08-18T15:30:36;20.73;;;6.50;;
18752;SDS011;9505;50.882;5.350;2022-08-18T15:33:03;9.35;;;4.50;;
18752;SDS011;9505;50.882;5.350;2022-08-18T15:35:29;17.27;;;6.03;;
18752;SDS011;9505;50.882;5.350;2022-08-18T15:37:55;26.67;;;7.43;;
18752;SDS011;9505;50.882;5.350;2022-08-18T15:40:22;25.02;;;7.40;;
18752;SDS011;9505;50.882;5.350;2022-08-18T15:42:54;10.90;;;4.93;;
18752;SDS011;9505;50.882;5.350;2022-08-18T15:45:25;10.95;;;4.78;;
18752;SDS011;9505;50.882;5.350;2022-08-18T15:47:56;12.80;;;5.43;;
18752;SDS011;9505;50.882;5.350;2022-08-18T15:50:21;8.98;;;4.15;;
18752;SDS011;9505;50.882;5.350;2022-08-18T15:52:47;28.15;;;8.40;;
18752;SDS011;9505;50.882;5.350;2022-08-18T15:55:16;28.58;;;8.20;;
18752;SDS011;9505;50.882;5.350;2022-08-18T15:57:43;18.17;;;6.22;;
18752;SDS011;9505;50.882;5.350;2022-08-18T16:00:09;10.65;;;5.15;;
18752;SDS011;9505;50.882;5.350;2022-08-18T16:02:35;26.15;;;6.60;;
18752;SDS011;9505;50.882;5.350;2022-08-18T16:05:03;29.85;;;8.30;;
18752;SDS011;9505;50.882;5.350;2022-08-18T16:07:30;28.73;;;7.35;;
18752;SDS011;9505;50.882;5.350;2022-08-18T16:09:55;15.50;;;5.13;;
18752;SDS011;9505;50.882;5.350;2022-08-18T16:12:21;11.77;;;4.00;;
18752;SDS011;9505;50.882;5.350;2022-08-18T16:14:47;27.73;;;6.88;;
18752;SDS011;9505;50.882;5.350;2022-08-18T16:17:13;21.40;;;6.03;;
18752;SDS011;9505;50.882;5.350;2022-08-18T16:19:39;9.02;;;4.05;;
18752;SDS011;9505;50.882;5.350;2022-08-18T16:22:04;8.60;;;4.22;;
18752;SDS011;9505;50.882;5.350;2022-08-18T16:24:31;10.60;;;4.13;;
18752;SDS011;9505;50.882;5.350;2022-08-18T16:26:57;9.77;;;3.92;;
18752;SDS011;9505;50.882;5.350;2022-08-18T16:29:23;25.00;;;6.50;;
18752;SDS011;9505;50.882;5.350;2022-08-18T16:31:49;11.25;;;4.45;;
18752;SDS011;9505;50.882;5.350;2022-08-18T16:34:15;11.93;;;4.63;;
18752;SDS011;9505;50.882;5.350;2022-08-18T16:36:40;7.63;;;4.15;;
18752;SDS011;9505;50.882;5.350;2022-08-18T16:39:06;18.02;;;5.32;;
18752;SDS011;9505;50.882;5.350;2022-08-18T16:41:32;9.05;;;3.80;;
18752;SDS011;9505;50.882;5.350;2022-08-18T16:43:58;11.10;;;4.75;;
18752;SDS011;9505;50.882;5.350;2022-08-18T16:46:24;11.93;;;4.75;;
18752;SDS011;9505;50.882;5.350;2022-08-18T16:48:55;12.25;;;5.03;;
18752;SDS011;9505;50.882;5.350;2022-08-18T16:51:22;9.65;;;4.22;;
18752;SDS011;9505;50.882;5.350;2022-08-18T16:53:50;7.32;;;3.90;;
18752;SDS011;9505;50.882;5.350;2022-08-18T16:56:22;8.85;;;4.47;;
18752;SDS011;9505;50.882;5.350;2022-08-18T16:58:49;8.48;;;3.90;;
18752;SDS011;9505;50.882;5.350;2022-08-18T17:01:35;5.47;;;3.65;;
18752;SDS011;9505;50.882;5.350;2022-08-18T17:04:20;6.13;;;3.78;;
18752;SDS011;9505;50.882;5.350;2022-08-18T17:06:53;11.68;;;4.70;;
18752;SDS011;9505;50.882;5.350;2022-08-18T17:09:19;11.95;;;4.47;;
18752;SDS011;9505;50.882;5.350;2022-08-18T17:11:46;10.50;;;4.57;;
18752;SDS011;9505;50.882;5.350;2022-08-18T17:14:13;7.47;;;3.95;;
18752;SDS011;9505;50.882;5.350;2022-08-18T17:16:39;6.75;;;3.95;;
18752;SDS011;9505;50.882;5.350;2022-08-18T17:19:06;11.93;;;5.50;;
18752;SDS011;9505;50.882;5.350;2022-08-18T17:21:32;9.07;;;4.75;;
18752;SDS011;9505;50.882;5.350;2022-08-18T17:23:58;11.10;;;4.88;;
18752;SDS011;9505;50.882;5.350;2022-08-18T17:29:05;8.63;;;5.15;;
18752;SDS011;9505;50.882;5.350;2022-08-18T17:31:42;14.30;;;5.93;;
18752;SDS011;9505;50.882;5.350;2022-08-18T17:34:12;14.93;;;6.35;;
18752;SDS011;9505;50.882;5.350;2022-08-18T17:36:46;12.40;;;6.47;;
18752;SDS011;9505;50.882;5.350;2022-08-18T17:39:15;11.30;;;5.40;;
18752;SDS011;9505;50.882;5.350;2022-08-18T17:41:46;14.75;;;5.47;;
18752;SDS011;9505;50.882;5.350;2022-08-18T17:44:31;7.25;;;4.70;;
18752;SDS011;9505;50.882;5.350;2022-08-18T17:46:58;7.80;;;4.88;;
18752;SDS011;9505;50.882;5.350;2022-08-18T17:49:28;12.63;;;5.65;;